Weather History for Auburn-Lewiston, ME

Change the Weather History Date:

Wednesday, November 20, 2013

  Actual Average Record
Temperature  
Mean Temperature 29 °F -  
Max Temperature 37 °F 41 °F 60 °F (1999)
Min Temperature 21 °F 26 °F 12 °F (2008)
Degree Days  
Heating Degree Days 36    
Moisture  
Dew Point 9 °F    
Average Humidity 43    
Maximum Humidity 68    
Minimum Humidity 28    
Precipitation  
Precipitation 0.00 in - - ()
Sea Level Pressure  
Sea Level Pressure 30.60 in    
Wind  
Wind Speed 11 mph (NNW)    
Max Wind Speed 20 mph    
Max Gust Speed 25 mph    
Visibility 10 miles    
Events      
Averages and records for this station are not official NWS values.
T = Trace of Precipitation, MM = Missing Value Source: NWS Daily Summary

Daily Weather History Graph

Daily Weather History Graph

Search for Another Location

Airport:

Trip Planner

Search our weather history database for the weather conditions in past years. The results will help you decide how hot, cold, wet, or windy it might be!

Date:

Astronomy

Nov. 20, 2013 Rise Set
Actual Time 6:42 AM EST 4:10 PM EST
Civil Twilight 6:11 AM EST 4:41 PM EST
Nautical Twilight 5:36 AM EST 5:17 PM EST
Astronomical Twilight 5:01 AM EST 5:51 PM EST
Moon 6:50 PM EST (11/20) 9:06 AM EST (11/20)
Length of Visible Light 10h 30m
Length of Day
9h 27m
Waning Gibbous, 91% of the Moon is Illuminated
Nov 20
Waning Gibbous
Nov 25
Last Quarter
Dec 2
New
Dec 9
First Quarter
Dec 17
Full

Hourly Weather History & Observations

Time (EST) Temp. Windchill Dew Point Humidity Pressure Visibility Wind Dir Wind Speed Gust Speed Precip Events Conditions
12:15 AM 30.2 °F 19.3 °F 10.4 °F 44% - 10.0 mi NNW 15.0 mph 20.7 mph N/A   Clear
12:35 AM 30.2 °F 19.8 °F 10.4 °F 44% - 10.0 mi NNW 13.8 mph 24.2 mph N/A   Clear
12:55 AM 30.2 °F 17.8 °F 10.4 °F 44% - 10.0 mi NNW 19.6 mph 25.3 mph N/A   Clear
1:15 AM 30.2 °F 20.2 °F 10.4 °F 44% - 10.0 mi NW 12.7 mph - N/A   Clear
1:35 AM 30.2 °F 18.1 °F 10.4 °F 44% - 10.0 mi NW 18.4 mph 21.9 mph N/A   Clear
1:55 AM 30.2 °F 18.1 °F 10.4 °F 44% - 10.0 mi NW 18.4 mph 24.2 mph N/A   Clear
2:15 AM 30.2 °F 18.9 °F 10.4 °F 44% - 10.0 mi NNW 16.1 mph - N/A   Clear
2:35 AM 30.2 °F 19.3 °F 10.4 °F 44% - 10.0 mi NNW 15.0 mph 20.7 mph N/A   Clear
2:55 AM 28.4 °F 17.5 °F 10.4 °F 47% - 10.0 mi NW 13.8 mph 19.6 mph N/A   Clear
3:15 AM 28.4 °F 18.5 °F 10.4 °F 47% - 10.0 mi NW 11.5 mph - N/A   Clear
3:35 AM 28.4 °F 17.5 °F 10.4 °F 47% - 10.0 mi NW 13.8 mph - N/A   Clear
3:55 AM 28.4 °F 18.0 °F 10.4 °F 47% - 10.0 mi NW 12.7 mph - N/A   Clear
4:15 AM 28.4 °F 19.1 °F 10.4 °F 47% - 10.0 mi NW 10.4 mph 20.7 mph N/A   Clear
4:35 AM 28.4 °F 22.2 °F 12.2 °F 51% - 10.0 mi NNW 5.8 mph - N/A   Clear
4:55 AM 28.4 °F 21.2 °F 12.2 °F 51% - 10.0 mi NW 6.9 mph - N/A   Clear
5:15 AM 28.4 °F 18.0 °F 12.2 °F 51% - 10.0 mi NW 12.7 mph - N/A   Clear
5:35 AM 28.4 °F 16.6 °F 12.2 °F 51% - 10.0 mi NW 16.1 mph 21.9 mph N/A   Clear
5:55 AM 28.4 °F 19.7 °F 12.2 °F 51% - 10.0 mi NW 9.2 mph - N/A   Clear
6:15 AM 28.4 °F 20.4 °F 12.2 °F 51% - 10.0 mi NNW 8.1 mph - N/A   Clear
6:35 AM 28.4 °F 19.1 °F 10.4 °F 47% - 10.0 mi NW 10.4 mph - N/A   Clear
6:55 AM 28.4 °F 19.7 °F 10.4 °F 47% - 10.0 mi NW 9.2 mph - N/A   Clear
7:15 AM 28.4 °F 18.0 °F 10.4 °F 47% - 10.0 mi NW 12.7 mph - N/A   Clear
7:35 AM 28.4 °F 18.5 °F 10.4 °F 47% - 10.0 mi NW 11.5 mph 18.4 mph N/A   Clear
7:55 AM 28.4 °F 15.8 °F 10.4 °F 47% - 10.0 mi NW 18.4 mph 24.2 mph N/A   Clear
8:15 AM 28.4 °F 17.0 °F 10.4 °F 47% - 10.0 mi NW 15.0 mph 21.9 mph N/A   Clear
8:35 AM 30.2 °F 19.3 °F 10.4 °F 44% - 10.0 mi NW 15.0 mph 21.9 mph N/A   Clear
8:55 AM 30.2 °F 18.5 °F 10.4 °F 44% - 10.0 mi NNW 17.3 mph 23.0 mph N/A   Clear
9:15 AM 30.2 °F 20.2 °F 10.4 °F 44% - 10.0 mi NNW 12.7 mph 21.9 mph N/A   Clear
9:35 AM 32.0 °F 22.5 °F 8.6 °F 38% - 10.0 mi NNW 12.7 mph - N/A   Clear
9:55 AM 32.0 °F 22.5 °F 8.6 °F 38% - 10.0 mi NW 12.7 mph - N/A   Clear
10:15 AM 33.8 °F 24.3 °F 8.6 °F 35% - 10.0 mi NW 13.8 mph 20.7 mph N/A   Clear
10:35 AM 33.8 °F 22.8 °F 8.6 °F 35% - 10.0 mi NW 18.4 mph 21.9 mph N/A   Clear
10:55 AM 33.8 °F 24.3 °F 8.6 °F 35% - 10.0 mi NNW 13.8 mph 17.3 mph N/A   Clear
11:15 AM 35.6 °F 26.2 °F 8.6 °F 33% - 10.0 mi NW 15.0 mph 20.7 mph N/A   Clear
11:35 AM 35.6 °F 28.0 °F 8.6 °F 33% - 10.0 mi NNW 10.4 mph 20.7 mph N/A   Clear
11:55 AM 35.6 °F 26.2 °F 6.8 °F 30% - 10.0 mi North 15.0 mph 20.7 mph N/A   Clear
12:15 PM 37.4 °F 28.2 °F 6.8 °F 28% - 10.0 mi NNW 16.1 mph - N/A   Clear
12:35 PM 37.4 °F 29.3 °F 6.8 °F 28% - 10.0 mi North 12.7 mph 17.3 mph N/A   Clear
12:55 PM 37.4 °F 28.9 °F 6.8 °F 28% - 10.0 mi North 13.8 mph 21.9 mph N/A   Clear
1:15 PM 37.4 °F 29.3 °F 8.6 °F 30% - 10.0 mi North 12.7 mph 20.7 mph N/A   Clear
1:35 PM 37.4 °F 28.2 °F 6.8 °F 28% - 10.0 mi NNW 16.1 mph 19.6 mph N/A   Clear
1:55 PM 37.4 °F 30.8 °F 8.6 °F 30% - 10.0 mi NNW 9.2 mph - N/A   Clear
2:15 PM 37.4 °F 29.3 °F 8.6 °F 30% - 10.0 mi NNW 12.7 mph - N/A   Clear
2:35 PM 37.4 °F 30.3 °F 6.8 °F 28% - 10.0 mi NNW 10.4 mph - N/A   Clear
2:55 PM 37.4 °F 29.8 °F 6.8 °F 28% - 10.0 mi NNW 11.5 mph - N/A   Clear
3:15 PM 37.4 °F 30.8 °F 6.8 °F 28% - 10.0 mi NNW 9.2 mph - N/A   Clear
3:35 PM 37.4 °F 32.1 °F 6.8 °F 28% - 10.0 mi NW 6.9 mph - N/A   Clear
3:55 PM 37.4 °F 32.1 °F 6.8 °F 28% - 10.0 mi NW 6.9 mph - N/A   Clear
4:15 PM 35.6 °F 30.7 °F 6.8 °F 30% - 10.0 mi NW 5.8 mph - N/A   Clear
4:35 PM 33.8 °F 29.6 °F 6.8 °F 32% - 10.0 mi NW 4.6 mph - N/A   Clear
4:55 PM 33.8 °F - 6.8 °F 32% - 10.0 mi Calm Calm - N/A   Clear
5:15 PM 33.8 °F - 6.8 °F 32% - 10.0 mi Calm Calm - N/A   Clear
5:35 PM 32.0 °F 27.5 °F 8.6 °F 38% - 10.0 mi NNW 4.6 mph - N/A   Clear
5:55 PM 30.2 °F 26.7 °F 6.8 °F 37% - 10.0 mi NNW 3.5 mph - N/A   Clear
6:15 PM 30.2 °F 25.4 °F 8.6 °F 40% - 10.0 mi North 4.6 mph - N/A   Clear
6:35 PM 30.2 °F 26.7 °F 8.6 °F 40% - 10.0 mi North 3.5 mph - N/A   Clear
6:55 PM 28.4 °F 24.6 °F 8.6 °F 43% - 10.0 mi North 3.5 mph - N/A   Clear
7:15 PM 28.4 °F - 6.8 °F 40% - 10.0 mi Calm Calm - N/A   Clear
7:35 PM 28.4 °F - 8.6 °F 43% - 10.0 mi Calm Calm - N/A   Clear
7:55 PM 24.8 °F - 6.8 °F 46% - 10.0 mi Calm Calm - N/A   Clear
8:15 PM 26.6 °F - 10.4 °F 51% - 10.0 mi Calm Calm - N/A   Clear
8:35 PM 26.6 °F - 10.4 °F 51% - 10.0 mi Calm Calm - N/A   Clear
8:55 PM 24.8 °F - 6.8 °F 46% - 10.0 mi Calm Calm - N/A   Clear
9:15 PM 23.0 °F 18.4 °F 10.4 °F 59% - 10.0 mi South 3.5 mph - N/A   Clear
9:35 PM 23.0 °F - 10.4 °F 59% 30.60 in 10.0 mi Calm Calm - N/A   Clear
9:55 PM 24.8 °F - 12.2 °F 59% 30.60 in 10.0 mi Calm Calm - N/A   Clear
10:15 PM 23.0 °F - 10.4 °F 59% 30.60 in 10.0 mi Calm Calm - N/A   Clear
10:35 PM 21.2 °F - 10.4 °F 63% 30.60 in 10.0 mi Calm Calm - N/A   Clear
10:55 PM 21.2 °F - 12.2 °F 68% 30.61 in 10.0 mi Calm Calm - N/A   Clear
11:15 PM 23.0 °F - 12.2 °F 63% 30.61 in 10.0 mi Calm Calm - N/A   Clear
11:35 PM 23.0 °F - 12.2 °F 63% 30.60 in 10.0 mi Calm Calm - N/A   Clear
11:55 PM 21.2 °F - 10.4 °F 63% 30.60 in 10.0 mi Calm Calm - N/A   Clear